Time;durP1;ratioP1;P1;durP2;ratioP2;P2;SDS_P1;SDS_P2;PMS_P1;PMS_P2;Temp;Humidity;BMP_temperature;BMP_pressure;BME280_temperature;BME280_humidity;BME280_pressure;Samples;Min_cycle;Max_cycle;Signal;HPM_P1;HPM_P2
2021/08/25 00:00:54;;;;;;;5.25;2.10;;;13.10;97.60;;;;;;4991221;28;20034;-86
2021/08/25 00:03:19;;;;;;;5.88;2.63;;;13.00;97.70;;;;;;4989952;28;20093;-86
2021/08/25 00:05:45;;;;;;;4.68;2.10;;;13.00;97.70;;;;;;4990396;28;20069;-85
2021/08/25 00:08:11;;;;;;;5.38;2.47;;;13.00;97.70;;;;;;4991647;28;20050;-86
2021/08/25 00:10:36;;;;;;;4.63;2.55;;;13.00;97.80;;;;;;4990926;28;20030;-86
2021/08/25 00:13:06;;;;;;;8.50;2.80;;;12.90;97.80;;;;;;4991582;28;20042;-86
2021/08/25 00:15:34;;;;;;;4.38;2.00;;;12.90;97.80;;;;;;4990383;28;20034;-85
2021/08/25 00:18:00;;;;;;;4.30;1.95;;;12.90;97.80;;;;;;4991060;28;20542;-86
2021/08/25 00:20:25;;;;;;;7.47;2.88;;;12.80;97.90;;;;;;4990173;28;20185;-86
2021/08/25 00:22:51;;;;;;;5.78;2.25;;;12.80;97.90;;;;;;4986472;28;20053;-86
2021/08/25 00:25:16;;;;;;;4.75;2.45;;;12.70;98.00;;;;;;4989869;28;20129;-86
2021/08/25 00:27:42;;;;;;;4.82;2.55;;;12.70;98.10;;;;;;4991372;28;20019;-86
2021/08/25 00:30:08;;;;;;;5.63;2.28;;;12.70;98.20;;;;;;4990710;28;20026;-86
2021/08/25 00:32:33;;;;;;;4.50;2.17;;;12.60;98.20;;;;;;4989988;28;20446;-86
2021/08/25 00:34:59;;;;;;;5.70;2.63;;;12.60;98.40;;;;;;4989967;28;20028;-86
2021/08/25 00:37:24;;;;;;;5.90;2.72;;;12.60;98.40;;;;;;4991352;28;20045;-86
2021/08/25 00:39:50;;;;;;;6.43;2.33;;;12.60;98.40;;;;;;4991105;28;20042;-86
2021/08/25 00:42:15;;;;;;;6.60;2.50;;;12.50;98.40;;;;;;4990201;28;20084;-86
2021/08/25 00:44:41;;;;;;;5.47;2.25;;;12.50;98.40;;;;;;4988108;28;20467;-86
2021/08/25 00:47:06;;;;;;;5.55;2.55;;;12.40;98.50;;;;;;4986583;28;20118;-86
2021/08/25 00:49:32;;;;;;;7.15;2.53;;;12.40;98.60;;;;;;5020102;28;20050;-86
2021/08/25 00:51:57;;;;;;;6.07;3.00;;;12.40;98.60;;;;;;4990884;28;20117;-86
2021/08/25 00:54:23;;;;;;;6.97;3.03;;;12.30;98.70;;;;;;4991768;28;20037;-86
2021/08/25 00:56:50;;;;;;;7.47;2.35;;;12.30;98.70;;;;;;4991375;28;20026;-85
2021/08/25 00:59:17;;;;;;;4.95;2.33;;;12.30;98.80;;;;;;4991617;28;20058;-85
2021/08/25 01:01:51;;;;;;;7.30;2.88;;;12.30;98.80;;;;;;4990384;28;20406;-85
2021/08/25 01:04:37;;;;;;;6.93;3.40;;;12.30;98.80;;;;;;4988689;28;20023;-85
2021/08/25 01:07:03;;;;;;;6.45;3.10;;;12.30;98.80;;;;;;4977041;28;20065;-85
2021/08/25 01:09:28;;;;;;;6.20;3.30;;;12.30;98.80;;;;;;5013593;28;20117;-86
2021/08/25 01:11:57;;;;;;;6.03;2.92;;;12.30;98.80;;;;;;4994787;28;20102;-85
2021/08/25 01:14:24;;;;;;;8.63;3.20;;;12.30;98.90;;;;;;4994713;28;20152;-85
2021/08/25 01:16:51;;;;;;;7.10;3.17;;;12.20;98.90;;;;;;4993838;28;20038;-86
2021/08/25 01:19:18;;;;;;;9.95;3.90;;;12.20;99.00;;;;;;4993380;28;20018;-86
2021/08/25 01:21:45;;;;;;;6.65;3.25;;;12.20;99.00;;;;;;4991897;28;20038;-85
2021/08/25 01:24:13;;;;;;;5.70;2.80;;;12.20;99.00;;;;;;4990570;28;20100;-85
2021/08/25 01:26:40;;;;;;;6.68;3.53;;;12.20;99.10;;;;;;4994640;28;20073;-85
2021/08/25 01:29:28;;;;;;;9.15;3.10;;;12.10;99.10;;;;;;4995173;28;20566;-84
2021/08/25 01:31:54;;;;;;;9.02;3.13;;;12.10;99.20;;;;;;4989593;28;20372;-86
2021/08/25 01:34:20;;;;;;;6.10;2.75;;;12.10;99.30;;;;;;4994456;28;20033;-85
2021/08/25 01:36:49;;;;;;;6.88;3.10;;;12.10;99.30;;;;;;4994235;28;20030;-84
2021/08/25 01:39:15;;;;;;;10.50;3.15;;;12.00;99.40;;;;;;4990265;28;20483;-85
2021/08/25 01:41:40;;;;;;;7.05;3.05;;;12.00;99.50;;;;;;4992824;28;20084;-86
2021/08/25 01:44:06;;;;;;;6.55;3.30;;;12.00;99.50;;;;;;4994142;28;20014;-85
2021/08/25 01:46:37;;;;;;;8.20;3.40;;;11.90;99.60;;;;;;4991848;28;20030;-85
2021/08/25 01:49:07;;;;;;;6.90;3.63;;;11.90;99.60;;;;;;4993097;28;20022;-85
2021/08/25 01:51:34;;;;;;;6.13;2.85;;;11.90;99.70;;;;;;4991264;28;20037;-85
2021/08/25 01:54:00;;;;;;;7.45;4.28;;;11.80;99.80;;;;;;4993904;28;20058;-85
2021/08/25 01:56:26;;;;;;;8.93;3.72;;;11.80;99.90;;;;;;4979277;28;20550;-85
2021/08/25 01:58:53;;;;;;;8.68;4.43;;;11.80;99.90;;;;;;4993361;28;20199;-85
2021/08/25 02:01:19;;;;;;;8.38;3.58;;;11.80;99.90;;;;;;5009472;28;20042;-85
2021/08/25 02:03:44;;;;;;;9.57;4.63;;;11.80;99.90;;;;;;4994959;28;20027;-86
2021/08/25 02:06:10;;;;;;;9.77;4.68;;;11.80;99.90;;;;;;4992731;28;20034;-85
2021/08/25 02:08:35;;;;;;;11.68;4.43;;;11.70;99.90;;;;;;4993470;28;20387;-85
2021/08/25 02:11:01;;;;;;;8.45;4.20;;;11.70;99.90;;;;;;4993056;28;20080;-86
2021/08/25 02:13:27;;;;;;;7.45;3.53;;;11.70;99.90;;;;;;4992542;28;20132;-86
2021/08/25 02:15:53;;;;;;;8.07;4.70;;;11.70;99.90;;;;;;4991865;28;20077;-86
2021/08/25 02:18:19;;;;;;;7.55;4.55;;;11.70;99.90;;;;;;4992836;28;20031;-86
2021/08/25 02:20:44;;;;;;;8.98;4.68;;;11.70;99.90;;;;;;4992368;28;20060;-86
2021/08/25 02:23:10;;;;;;;9.02;4.40;;;11.70;99.90;;;;;;4993471;28;20026;-86
2021/08/25 02:25:36;;;;;;;8.38;5.03;;;11.80;99.90;;;;;;4992856;28;20061;-86
2021/08/25 02:28:01;;;;;;;10.75;5.40;;;11.70;99.90;;;;;;4992798;28;20060;-86
2021/08/25 02:30:27;;;;;;;10.68;4.90;;;11.70;99.90;;;;;;4992196;28;20399;-86
2021/08/25 02:32:53;;;;;;;10.20;4.88;;;11.70;99.90;;;;;;4987107;28;20042;-84
2021/08/25 02:35:18;;;;;;;8.45;3.85;;;11.70;99.90;;;;;;4993606;28;20034;-86
2021/08/25 02:37:44;;;;;;;8.20;4.47;;;11.70;99.90;;;;;;4993851;28;20030;-86
2021/08/25 02:40:10;;;;;;;8.52;5.00;;;11.70;99.90;;;;;;4992726;28;20041;-86
2021/08/25 02:42:36;;;;;;;10.07;4.97;;;11.60;99.90;;;;;;4992143;28;20120;-86
2021/08/25 02:45:04;;;;;;;11.45;5.13;;;11.60;99.90;;;;;;4991376;28;20094;-86
2021/08/25 02:47:29;;;;;;;10.50;5.40;;;11.60;99.90;;;;;;4990281;28;20030;-85
2021/08/25 02:49:55;;;;;;;10.82;5.28;;;11.60;99.90;;;;;;4991848;28;20033;-86
2021/08/25 02:52:20;;;;;;;9.45;5.07;;;11.60;99.90;;;;;;4992474;28;20554;-85
2021/08/25 02:54:46;;;;;;;10.90;4.80;;;11.50;99.90;;;;;;4993013;28;20169;-85
2021/08/25 02:57:11;;;;;;;8.60;4.53;;;11.50;99.90;;;;;;4993712;28;20109;-86
2021/08/25 02:59:36;;;;;;;11.63;5.25;;;11.40;99.90;;;;;;4991549;28;20027;-85
2021/08/25 03:02:02;;;;;;;9.88;5.55;;;11.40;99.90;;;;;;4991955;28;20039;-85
2021/08/25 03:04:28;;;;;;;9.50;6.20;;;11.40;99.90;;;;;;4992512;28;20027;-85
2021/08/25 03:06:53;;;;;;;10.07;5.22;;;11.30;99.90;;;;;;4992995;28;20077;-85
2021/08/25 03:09:19;;;;;;;12.73;5.70;;;11.30;99.90;;;;;;4990719;28;20113;-86
2021/08/25 03:11:44;;;;;;;10.73;5.10;;;11.30;99.90;;;;;;4991668;28;20030;-85
2021/08/25 03:14:10;;;;;;;12.32;6.20;;;11.30;99.90;;;;;;4990415;28;20085;-85
2021/08/25 03:16:35;;;;;;;12.55;5.68;;;11.30;99.90;;;;;;4992627;28;20038;-85
2021/08/25 03:19:01;;;;;;;9.40;6.03;;;11.30;99.90;;;;;;4991060;28;20050;-85
2021/08/25 03:21:26;;;;;;;10.05;5.85;;;11.30;99.90;;;;;;4991115;28;20052;-85
2021/08/25 03:23:52;;;;;;;10.30;5.75;;;11.30;99.90;;;;;;4991157;28;20026;-85
2021/08/25 03:26:18;;;;;;;9.57;5.50;;;11.40;99.90;;;;;;4992728;28;20065;-85
2021/08/25 03:28:44;;;;;;;10.85;5.45;;;11.30;99.90;;;;;;4989361;28;20479;-85
2021/08/25 03:31:10;;;;;;;12.65;5.90;;;11.40;99.90;;;;;;4991689;28;20029;-85
2021/08/25 03:33:35;;;;;;;13.32;6.43;;;11.40;99.90;;;;;;4990975;28;20034;-84
2021/08/25 03:36:01;;;;;;;9.07;5.63;;;11.40;99.90;;;;;;4993153;28;20034;-84
2021/08/25 03:38:26;;;;;;;10.27;5.57;;;11.40;99.90;;;;;;4992547;28;20485;-85
2021/08/25 03:40:52;;;;;;;11.48;6.15;;;11.30;99.90;;;;;;4990856;28;20045;-85
2021/08/25 03:43:17;;;;;;;11.57;6.25;;;11.30;99.90;;;;;;4991352;28;20030;-85
2021/08/25 03:45:43;;;;;;;10.60;5.68;;;11.30;99.90;;;;;;4990907;28;20384;-85
2021/08/25 03:48:08;;;;;;;10.77;5.57;;;11.20;99.90;;;;;;4987995;28;20030;-85
2021/08/25 03:50:34;;;;;;;10.40;6.50;;;11.20;99.90;;;;;;4991178;28;20185;-84
2021/08/25 03:52:59;;;;;;;11.18;6.30;;;11.20;99.90;;;;;;4992407;28;20512;-85
2021/08/25 03:55:25;;;;;;;13.38;6.43;;;11.20;99.90;;;;;;4983437;28;20035;-85
2021/08/25 03:57:51;;;;;;;9.80;5.53;;;11.20;99.90;;;;;;4989266;28;20061;-86
2021/08/25 04:00:16;;;;;;;11.43;6.97;;;11.20;99.90;;;;;;4989444;28;20034;-86
2021/08/25 04:02:42;;;;;;;9.88;6.15;;;11.20;99.90;;;;;;4991281;28;20129;-86
2021/08/25 04:05:08;;;;;;;10.73;6.15;;;11.10;99.90;;;;;;4990264;28;20034;-86
2021/08/25 04:07:34;;;;;;;10.43;6.70;;;11.20;99.90;;;;;;4991240;28;20042;-86
2021/08/25 04:10:00;;;;;;;12.43;6.43;;;11.10;99.90;;;;;;4990025;28;20475;-86
2021/08/25 04:12:25;;;;;;;12.23;5.90;;;11.10;99.90;;;;;;4993045;28;20033;-86
2021/08/25 04:14:51;;;;;;;12.48;7.07;;;11.20;99.90;;;;;;4989781;28;20030;-86
2021/08/25 04:17:17;;;;;;;20.15;7.60;;;11.10;99.90;;;;;;4989161;28;20096;-86
2021/08/25 04:19:42;;;;;;;11.63;6.95;;;11.00;99.90;;;;;;4989669;28;20026;-86
2021/08/25 04:22:08;;;;;;;11.75;6.82;;;11.00;99.90;;;;;;4987565;28;20038;-86
2021/08/25 04:24:33;;;;;;;11.18;7.13;;;11.00;99.90;;;;;;4987415;28;20475;-85
2021/08/25 04:26:59;;;;;;;10.02;6.13;;;11.00;99.90;;;;;;4992571;28;20050;-85
2021/08/25 04:29:24;;;;;;;11.23;6.43;;;11.00;99.90;;;;;;4992191;28;20105;-86
2021/08/25 04:31:50;;;;;;;8.90;5.85;;;11.00;99.90;;;;;;4993086;28;20402;-86
2021/08/25 04:34:15;;;;;;;13.27;7.35;;;11.00;99.90;;;;;;4987717;28;20045;-85
2021/08/25 04:36:41;;;;;;;12.43;7.60;;;11.00;99.90;;;;;;4991525;28;20037;-86
2021/08/25 04:39:06;;;;;;;13.02;6.60;;;10.90;99.90;;;;;;4993514;28;20565;-85
2021/08/25 04:41:32;;;;;;;13.52;8.07;;;10.90;99.90;;;;;;4997695;28;20522;-86
2021/08/25 04:43:57;;;;;;;12.38;6.70;;;10.90;99.90;;;;;;4996277;28;20019;-86
2021/08/25 04:46:23;;;;;;;12.20;7.68;;;10.90;99.90;;;;;;4996485;28;20034;-86
2021/08/25 04:48:48;;;;;;;11.98;7.40;;;10.90;99.90;;;;;;4985718;28;20015;-86
2021/08/25 04:51:14;;;;;;;14.95;7.53;;;10.80;99.90;;;;;;5008156;28;20125;-86
2021/08/25 04:53:40;;;;;;;10.95;7.28;;;10.90;99.90;;;;;;4995905;28;20019;-86
2021/08/25 04:56:06;;;;;;;14.77;8.10;;;10.80;99.90;;;;;;4990673;28;20049;-86
2021/08/25 04:58:35;;;;;;;11.80;7.13;;;10.90;99.90;;;;;;4998667;28;20509;-86
2021/08/25 05:01:01;;;;;;;12.88;7.20;;;11.00;99.90;;;;;;4989675;28;20043;-86
2021/08/25 05:03:27;;;;;;;13.70;6.70;;;11.00;99.90;;;;;;4991748;28;20085;-86
2021/08/25 05:05:52;;;;;;;14.18;7.22;;;11.10;99.90;;;;;;4984957;28;20445;-85
2021/08/25 05:08:17;;;;;;;14.82;7.07;;;11.10;99.90;;;;;;4994387;28;20026;-85
2021/08/25 05:10:47;;;;;;;11.52;7.20;;;11.10;99.90;;;;;;4996835;28;20038;-85
2021/08/25 05:13:13;;;;;;;12.27;7.43;;;11.20;99.90;;;;;;4995412;28;20077;-86
2021/08/25 05:15:43;;;;;;;12.50;8.30;;;11.20;99.90;;;;;;4988725;28;20034;-85
2021/08/25 05:18:09;;;;;;;12.93;7.40;;;11.30;99.90;;;;;;4985007;28;20072;-85
2021/08/25 05:20:34;;;;;;;22.23;6.97;;;11.30;99.90;;;;;;4981719;28;20422;-86
2021/08/25 05:23:00;;;;;;;15.30;8.63;;;11.40;99.90;;;;;;4992817;28;20601;-86
2021/08/25 05:25:25;;;;;;;12.10;6.90;;;11.40;99.90;;;;;;4985139;28;20054;-86
2021/08/25 05:27:51;;;;;;;10.32;7.18;;;11.50;99.90;;;;;;4989955;28;20018;-85
2021/08/25 05:30:17;;;;;;;15.20;8.35;;;11.50;99.90;;;;;;4987487;28;20039;-84
2021/08/25 05:32:42;;;;;;;12.00;7.10;;;11.60;99.90;;;;;;5015357;28;20121;-85
2021/08/25 05:35:09;;;;;;;12.88;7.53;;;11.60;99.90;;;;;;4989036;28;20031;-85
2021/08/25 05:37:34;;;;;;;13.70;7.00;;;11.60;99.90;;;;;;4994854;28;20102;-86
2021/08/25 05:40:00;;;;;;;12.95;7.85;;;11.60;99.90;;;;;;4995434;28;20054;-86
2021/08/25 05:42:25;;;;;;;12.88;7.07;;;11.60;99.90;;;;;;4986498;28;20183;-86
2021/08/25 05:44:51;;;;;;;14.48;7.88;;;11.70;99.90;;;;;;4993205;28;20018;-86
2021/08/25 05:47:16;;;;;;;10.05;6.70;;;11.70;99.90;;;;;;4996214;28;20027;-85
2021/08/25 05:49:42;;;;;;;12.18;7.72;;;11.70;99.90;;;;;;4993189;28;20018;-86
2021/08/25 05:52:07;;;;;;;15.07;8.00;;;11.80;99.90;;;;;;4995091;28;20150;-86
2021/08/25 05:54:33;;;;;;;11.82;8.05;;;11.80;99.90;;;;;;4991015;28;20033;-86
2021/08/25 05:56:59;;;;;;;12.55;6.68;;;11.90;99.90;;;;;;4992023;28;20021;-86
2021/08/25 05:59:24;;;;;;;10.52;7.18;;;12.00;99.90;;;;;;4992471;28;20031;-85
2021/08/25 06:01:50;;;;;;;10.98;7.22;;;12.00;99.90;;;;;;4995095;28;20034;-85
2021/08/25 06:04:15;;;;;;;19.00;8.45;;;12.10;99.90;;;;;;4991894;28;20494;-86
2021/08/25 06:06:41;;;;;;;12.77;7.32;;;12.20;99.90;;;;;;4997288;28;20121;-86
2021/08/25 06:09:07;;;;;;;10.32;7.00;;;12.20;99.90;;;;;;4996453;28;20073;-86
2021/08/25 06:11:36;;;;;;;15.13;8.18;;;12.40;99.90;;;;;;4992255;28;20403;-86
2021/08/25 06:14:01;;;;;;;12.88;8.15;;;12.50;99.90;;;;;;4990441;28;20419;-87
2021/08/25 06:16:27;;;;;;;14.68;7.50;;;12.60;99.90;;;;;;4996175;28;20042;-87
2021/08/25 06:18:52;;;;;;;11.10;7.88;;;12.80;99.90;;;;;;4997131;28;20043;-85
2021/08/25 06:21:18;;;;;;;13.75;7.55;;;12.90;99.90;;;;;;4990853;28;20043;-87
2021/08/25 06:23:44;;;;;;;14.70;8.20;;;13.00;99.90;;;;;;4989881;28;20431;-87
2021/08/25 06:26:10;;;;;;;10.75;7.30;;;13.20;99.90;;;;;;4997081;28;20046;-87
2021/08/25 06:28:35;;;;;;;14.23;7.88;;;13.30;99.90;;;;;;4991632;28;20034;-86
2021/08/25 06:31:01;;;;;;;12.85;7.88;;;13.40;99.90;;;;;;4991118;28;20488;-87
2021/08/25 06:33:26;;;;;;;12.20;6.95;;;13.50;99.90;;;;;;4992400;28;20439;-87
2021/08/25 06:35:52;;;;;;;11.00;7.32;;;13.60;99.90;;;;;;4996153;28;20030;-87
2021/08/25 06:38:17;;;;;;;11.60;7.55;;;13.70;99.90;;;;;;4996265;28;20055;-87
2021/08/25 06:40:43;;;;;;;14.00;7.63;;;13.70;99.90;;;;;;4995980;28;20039;-87
2021/08/25 06:43:08;;;;;;;13.68;7.28;;;13.80;99.90;;;;;;4996353;28;20022;-87
2021/08/25 06:45:34;;;;;;;9.15;6.85;;;13.90;99.90;;;;;;4995973;28;20027;-87
2021/08/25 06:47:59;;;;;;;12.70;7.78;;;14.00;99.90;;;;;;4979318;28;20480;-87
2021/08/25 06:50:25;;;;;;;11.45;6.75;;;14.10;99.90;;;;;;4993357;28;20129;-87
2021/08/25 06:52:50;;;;;;;11.95;8.15;;;14.20;99.90;;;;;;4992853;28;20046;-86
2021/08/25 06:55:16;;;;;;;10.90;6.90;;;14.30;99.90;;;;;;4996846;28;20034;-87
2021/08/25 06:57:42;;;;;;;15.82;7.22;;;14.40;99.90;;;;;;4994672;28;20121;-87
2021/08/25 07:00:08;;;;;;;10.13;7.05;;;14.50;99.90;;;;;;4990427;28;20030;-87
2021/08/25 07:02:33;;;;;;;11.00;7.80;;;14.60;99.90;;;;;;4990311;28;20502;-87
2021/08/25 07:04:59;;;;;;;11.35;7.00;;;14.70;99.90;;;;;;4994018;28;20026;-87
2021/08/25 07:07:24;;;;;;;11.50;7.13;;;14.80;99.90;;;;;;4991124;28;20030;-87
2021/08/25 07:09:49;;;;;;;9.90;6.85;;;14.90;99.90;;;;;;4993200;28;20113;-87
2021/08/25 07:12:15;;;;;;;11.15;6.55;;;15.00;99.90;;;;;;4981288;28;20052;-87
2021/08/25 07:14:41;;;;;;;14.57;7.32;;;15.10;99.90;;;;;;4992875;28;20057;-87
2021/08/25 07:17:06;;;;;;;9.02;5.88;;;15.30;99.90;;;;;;4992269;28;20069;-87
2021/08/25 07:19:32;;;;;;;12.07;6.43;;;15.40;99.90;;;;;;4992506;28;20058;-86
2021/08/25 07:21:57;;;;;;;10.73;6.45;;;15.50;99.60;;;;;;4989609;28;20514;-87
2021/08/25 07:24:23;;;;;;;9.80;6.20;;;15.60;99.30;;;;;;4987797;28;20026;-87
2021/08/25 07:26:48;;;;;;;10.93;6.55;;;15.80;99.10;;;;;;4993946;28;20522;-87
2021/08/25 07:29:14;;;;;;;12.07;6.40;;;15.90;98.90;;;;;;4989968;28;20820;-87
2021/08/25 07:31:39;;;;;;;9.38;6.22;;;16.00;98.60;;;;;;4974343;28;20148;-86
2021/08/25 07:34:05;;;;;;;9.77;5.97;;;16.20;98.60;;;;;;4987690;28;20113;-87
2021/08/25 07:36:31;;;;;;;7.97;5.18;;;16.30;98.00;;;;;;4992961;28;20030;-86
2021/08/25 07:38:56;;;;;;;9.35;5.65;;;16.40;97.80;;;;;;4993038;28;20100;-87
2021/08/25 07:41:22;;;;;;;11.23;5.35;;;16.40;97.50;;;;;;4975484;28;20480;-86
2021/08/25 07:43:47;;;;;;;10.30;5.55;;;16.50;97.40;;;;;;4974346;28;20026;-87
2021/08/25 07:46:13;;;;;;;12.07;6.28;;;16.70;97.30;;;;;;4989151;28;20487;-87
2021/08/25 07:48:38;;;;;;;9.98;5.45;;;16.80;97.10;;;;;;4995397;28;20034;-86
2021/08/25 07:51:08;;;;;;;10.18;5.13;;;16.90;96.60;;;;;;4994981;28;20041;-87
2021/08/25 07:53:38;;;;;;;9.48;5.93;;;17.00;96.40;;;;;;4996323;28;20018;-86
2021/08/25 07:56:05;;;;;;;11.65;5.07;;;17.10;96.30;;;;;;4995299;28;20376;-87
2021/08/25 07:58:30;;;;;;;7.50;5.20;;;17.30;96.30;;;;;;4995661;28;20023;-86
2021/08/25 08:00:56;;;;;;;10.48;5.82;;;17.40;96.00;;;;;;4994532;28;20034;-87
2021/08/25 08:03:22;;;;;;;6.57;4.57;;;17.50;95.50;;;;;;5028005;28;20113;-86
2021/08/25 08:05:48;;;;;;;7.07;4.75;;;17.50;95.40;;;;;;4995766;28;20034;-86
2021/08/25 08:08:14;;;;;;;10.52;4.82;;;17.60;95.20;;;;;;4995289;28;20122;-86
2021/08/25 08:10:40;;;;;;;8.23;4.50;;;17.70;94.90;;;;;;4984653;28;20051;-87
2021/08/25 08:13:06;;;;;;;6.80;3.95;;;17.70;94.60;;;;;;4983143;28;20030;-87
2021/08/25 08:15:33;;;;;;;6.20;4.25;;;17.80;94.40;;;;;;4994300;28;20026;-87
2021/08/25 08:18:07;;;;;;;11.25;4.72;;;17.90;94.30;;;;;;4995532;28;20033;-87
2021/08/25 08:20:32;;;;;;;7.10;4.45;;;18.00;94.30;;;;;;4993135;28;20407;-86
2021/08/25 08:22:58;;;;;;;7.55;4.13;;;18.20;94.00;;;;;;4985848;28;20033;-86
2021/08/25 08:25:23;;;;;;;11.52;4.68;;;18.40;93.70;;;;;;4975068;28;20411;-86
2021/08/25 08:27:49;;;;;;;10.93;5.05;;;18.40;93.70;;;;;;4988240;28;20030;-87
2021/08/25 08:30:14;;;;;;;8.48;4.07;;;18.50;93.60;;;;;;4996174;28;20027;-87
2021/08/25 08:32:40;;;;;;;9.05;4.10;;;18.60;93.30;;;;;;4985022;28;20026;-86
2021/08/25 08:35:06;;;;;;;11.95;4.18;;;18.70;93.10;;;;;;4986382;28;20058;-87
2021/08/25 08:37:32;;;;;;;7.93;4.43;;;18.70;92.90;;;;;;4994867;28;20046;-87
2021/08/25 08:39:57;;;;;;;7.60;4.72;;;18.80;92.50;;;;;;4991972;28;20022;-86
2021/08/25 08:42:28;;;;;;;8.40;4.47;;;18.90;92.10;;;;;;4995576;28;20568;-87
2021/08/25 08:44:55;;;;;;;7.82;4.43;;;18.90;91.90;;;;;;4995038;28;20117;-87
2021/08/25 08:47:23;;;;;;;8.30;4.18;;;19.00;91.30;;;;;;4994510;28;20041;-87
2021/08/25 08:49:50;;;;;;;5.00;3.00;;;19.10;90.60;;;;;;4993633;28;20430;-87
2021/08/25 08:52:15;;;;;;;6.57;3.15;;;19.10;90.50;;;;;;4975391;28;20023;-86
2021/08/25 08:54:41;;;;;;;7.55;2.92;;;19.20;90.30;;;;;;4986356;28;20033;-87
2021/08/25 08:57:06;;;;;;;6.88;3.03;;;19.30;88.80;;;;;;4975451;28;20728;-87
2021/08/25 08:59:32;;;;;;;6.63;2.75;;;19.40;87.50;;;;;;4982577;28;20033;-87
2021/08/25 09:01:57;;;;;;;7.60;2.97;;;19.40;87.30;;;;;;4994766;28;20037;-87
2021/08/25 09:04:31;;;;;;;5.00;2.88;;;19.60;86.10;;;;;;4994242;28;20019;-94
2021/08/25 09:06:57;;;;;;;7.10;3.53;;;19.60;85.80;;;;;;4993755;28;20030;-84
2021/08/25 09:09:22;;;;;;;5.80;2.97;;;19.70;85.60;;;;;;4992884;28;20052;-85
2021/08/25 09:11:53;;;;;;;6.32;3.33;;;19.80;85.80;;;;;;4977440;28;20038;-85
2021/08/25 09:14:19;;;;;;;8.13;3.85;;;19.90;85.20;;;;;;4995482;28;20032;-85
2021/08/25 09:16:45;;;;;;;6.25;2.83;;;20.00;85.00;;;;;;4977638;28;20027;-85
2021/08/25 09:19:16;;;;;;;5.97;2.90;;;20.10;84.70;;;;;;4991607;28;20025;-85
2021/08/25 09:21:51;;;;;;;7.05;1.85;;;20.10;83.60;;;;;;4987733;28;20038;-85
2021/08/25 09:24:22;;;;;;;6.85;2.53;;;20.20;82.90;;;;;;4980285;28;20027;-84
2021/08/25 09:27:08;;;;;;;5.57;2.60;;;20.20;81.70;;;;;;4996766;28;20499;-85
2021/08/25 09:29:37;;;;;;;5.22;2.40;;;20.30;80.60;;;;;;4997956;28;20045;-85
2021/08/25 09:32:03;;;;;;;4.80;2.10;;;20.30;80.60;;;;;;4994666;28;20030;-85
2021/08/25 09:34:30;;;;;;;6.57;1.67;;;20.40;80.00;;;;;;4985407;28;20033;-85
2021/08/25 09:37:06;;;;;;;4.38;1.65;;;20.50;79.60;;;;;;4996830;28;20022;-85
2021/08/25 09:39:32;;;;;;;4.35;1.45;;;20.60;78.10;;;;;;4997036;28;20109;-85
2021/08/25 09:41:57;;;;;;;3.53;1.63;;;20.60;77.40;;;;;;4990113;28;20106;-85
2021/08/25 09:44:23;;;;;;;4.00;1.75;;;20.70;77.10;;;;;;4992707;28;20026;-85
2021/08/25 09:46:51;;;;;;;3.28;1.30;;;20.80;74.30;;;;;;4996964;28;20022;-85
2021/08/25 09:49:17;;;;;;;4.38;1.83;;;20.80;73.60;;;;;;4995724;28;20023;-85
2021/08/25 09:51:43;;;;;;;4.05;1.55;;;20.80;73.20;;;;;;4993935;28;20031;-85
2021/08/25 09:54:11;;;;;;;4.50;1.90;;;20.90;72.60;;;;;;5027307;28;20427;-86
2021/08/25 09:56:39;;;;;;;4.97;1.80;;;21.00;73.10;;;;;;4998267;28;20188;-85
2021/08/25 09:59:07;;;;;;;6.93;2.30;;;21.00;73.40;;;;;;4999002;28;20033;-85
2021/08/25 10:01:33;;;;;;;3.78;1.50;;;21.00;73.20;;;;;;4995345;28;20077;-86
2021/08/25 10:03:58;;;;;;;4.93;2.05;;;21.00;72.20;;;;;;4994838;28;20030;-86
2021/08/25 10:06:26;;;;;;;3.35;1.95;;;21.00;72.60;;;;;;4980340;28;20081;-85
2021/08/25 10:08:52;;;;;;;4.80;1.92;;;21.10;71.30;;;;;;4983363;28;20030;-86
2021/08/25 10:11:22;;;;;;;4.43;1.70;;;21.10;70.90;;;;;;4997060;28;20026;-85
2021/08/25 10:13:48;;;;;;;4.15;1.67;;;21.10;70.90;;;;;;4997191;28;20101;-86
2021/08/25 10:16:38;;;;;;;5.95;1.42;;;21.10;70.60;;;;;;4981413;28;20058;-84
2021/08/25 10:19:35;;;;;;;4.25;2.30;;;21.20;71.10;;;;;;4996966;28;20041;-85
2021/08/25 10:22:03;;;;;;;3.78;1.77;;;21.20;71.10;;;;;;4979912;28;20030;-84
2021/08/25 10:25:02;;;;;;;4.38;1.60;;;21.30;71.30;;;;;;4994121;28;20168;-83
2021/08/25 10:27:30;;;;;;;3.88;1.80;;;21.40;71.20;;;;;;4986830;28;20047;-85
2021/08/25 10:30:02;;;;;;;4.75;1.75;;;21.40;70.50;;;;;;4989577;28;20057;-85
2021/08/25 10:32:36;;;;;;;6.10;2.53;;;21.50;69.60;;;;;;4994171;28;20057;-86
2021/08/25 10:35:11;;;;;;;4.68;1.77;;;21.50;69.60;;;;;;4990218;28;20031;-86
2021/08/25 10:37:38;;;;;;;5.18;1.77;;;21.60;67.80;;;;;;4990361;28;20129;-86
2021/08/25 10:40:05;;;;;;;5.13;2.40;;;21.50;67.40;;;;;;4993971;28;20022;-86
2021/08/25 10:42:54;;;;;;;5.68;1.83;;;21.50;67.40;;;;;;4993799;28;20030;-86
2021/08/25 10:45:38;;;;;;;5.78;1.02;;;21.50;67.70;;;;;;4993599;28;20360;-86
2021/08/25 10:48:09;;;;;;;5.55;1.20;;;21.50;67.20;;;;;;4994985;28;20026;-86
2021/08/25 10:50:51;;;;;;;5.63;1.42;;;21.60;66.80;;;;;;4993583;28;20023;-86
2021/08/25 10:53:31;;;;;;;3.42;1.45;;;21.60;65.90;;;;;;4993285;28;20038;-87
2021/08/25 10:56:26;;;;;;;3.38;1.40;;;21.70;65.70;;;;;;4993279;28;20041;-86
2021/08/25 10:59:02;;;;;;;3.97;1.52;;;21.80;64.60;;;;;;4993958;28;20072;-86
2021/08/25 11:01:43;;;;;;;4.68;2.60;;;21.80;65.30;;;;;;4993298;28;20066;-86
2021/08/25 11:04:15;;;;;;;4.80;2.35;;;21.80;64.70;;;;;;4994020;28;20478;-86
2021/08/25 11:06:45;;;;;;;5.50;2.25;;;21.80;65.90;;;;;;5007940;28;20086;-86
2021/08/25 11:09:13;;;;;;;5.03;2.30;;;21.80;65.90;;;;;;5008952;28;20125;-86
2021/08/25 11:11:42;;;;;;;6.35;2.58;;;21.80;66.90;;;;;;5015441;28;20463;-86
2021/08/25 11:14:08;;;;;;;7.20;3.05;;;21.80;65.90;;;;;;4995777;28;20030;-86
2021/08/25 11:16:33;;;;;;;6.78;2.70;;;21.80;65.50;;;;;;4995403;28;20030;-86
2021/08/25 11:18:59;;;;;;;4.57;2.20;;;21.90;65.70;;;;;;4995119;28;20029;-86
2021/08/25 11:21:24;;;;;;;3.53;2.10;;;22.00;65.90;;;;;;4995011;28;20163;-86
2021/08/25 11:23:57;;;;;;;5.70;2.58;;;22.00;66.50;;;;;;4994591;28;20022;-86
2021/08/25 11:26:23;;;;;;;8.30;2.25;;;22.00;65.80;;;;;;4974150;28;20050;-86
2021/08/25 11:28:49;;;;;;;4.50;2.40;;;22.00;66.20;;;;;;4974142;28;20019;-94
2021/08/25 11:31:24;;;;;;;3.78;2.00;;;22.00;67.30;;;;;;5007790;28;20034;-86
2021/08/25 11:33:50;;;;;;;4.88;1.90;;;22.10;67.10;;;;;;5012387;28;20061;-86
2021/08/25 11:36:15;;;;;;;5.15;1.70;;;22.20;65.90;;;;;;4995200;28;20022;-84
2021/08/25 11:38:41;;;;;;;4.82;2.17;;;22.30;65.30;;;;;;4996806;28;20029;-84
2021/08/25 11:41:06;;;;;;;3.80;2.10;;;22.30;65.40;;;;;;4996491;28;20081;-85
2021/08/25 11:43:34;;;;;;;4.68;2.63;;;22.30;65.50;;;;;;4996520;28;20419;-85
2021/08/25 11:46:00;;;;;;;4.55;2.30;;;22.30;66.10;;;;;;4985090;28;20026;-85
2021/08/25 11:48:30;;;;;;;5.60;2.60;;;22.30;66.90;;;;;;4976812;28;20222;-85
2021/08/25 11:50:57;;;;;;;4.93;2.78;;;22.40;67.50;;;;;;4994956;28;20030;-86
2021/08/25 11:53:26;;;;;;;4.55;1.92;;;22.50;66.50;;;;;;4996496;28;20026;-86
2021/08/25 11:55:57;;;;;;;5.57;2.30;;;22.50;65.90;;;;;;4996901;28;20022;-86
2021/08/25 11:58:30;;;;;;;6.90;2.83;;;22.50;67.40;;;;;;4992541;28;20026;-86
2021/08/25 12:00:57;;;;;;;6.93;2.53;;;22.60;67.40;;;;;;5022624;28;20828;-86
2021/08/25 12:03:43;;;;;;;4.82;2.08;;;22.50;67.00;;;;;;4991126;28;20045;-86
2021/08/25 12:06:10;;;;;;;4.25;1.98;;;22.60;67.20;;;;;;5022414;28;20037;-86
2021/08/25 12:08:47;;;;;;;5.68;3.28;;;22.60;67.80;;;;;;4994034;28;20026;-86
2021/08/25 12:11:14;;;;;;;7.72;3.75;;;22.60;67.40;;;;;;4994336;28;20052;-86
2021/08/25 12:13:44;;;;;;;5.70;3.35;;;22.70;66.90;;;;;;4993928;28;20121;-86
2021/08/25 12:16:23;;;;;;;7.97;4.35;;;22.70;67.30;;;;;;4991258;28;20025;-86
2021/08/25 12:19:00;;;;;;;7.22;4.07;;;22.90;67.40;;;;;;4993899;28;20056;-86
2021/08/25 12:21:34;;;;;;;6.32;3.83;;;22.90;67.70;;;;;;4996048;28;20065;-86
2021/08/25 12:24:07;;;;;;;9.75;3.92;;;22.90;67.80;;;;;;4996060;28;20026;-85
2021/08/25 12:26:39;;;;;;;5.80;2.83;;;22.70;68.10;;;;;;4994168;28;20058;-83
2021/08/25 12:29:07;;;;;;;8.77;3.47;;;22.50;69.80;;;;;;4994806;28;20026;-83
2021/08/25 12:31:34;;;;;;;5.70;3.65;;;22.50;69.40;;;;;;4993042;28;20041;-83
2021/08/25 12:34:12;;;;;;;5.07;3.10;;;22.50;69.10;;;;;;4995056;28;20113;-83
2021/08/25 12:36:57;;;;;;;6.35;3.80;;;22.70;68.40;;;;;;4994786;28;20039;-83
2021/08/25 12:39:28;;;;;;;6.82;3.40;;;22.80;68.60;;;;;;4994844;28;20030;-84
2021/08/25 12:41:56;;;;;;;5.15;3.13;;;22.80;68.70;;;;;;4994471;28;20046;-83
2021/08/25 12:44:22;;;;;;;6.60;3.38;;;22.70;69.50;;;;;;4994070;28;20116;-84